createdAt,value
2022-10-11T00:04:53.918Z,74.30
2022-10-11T00:09:58.838Z,74.50
2022-10-11T00:15:02.570Z,73.70
2022-10-11T00:20:08.342Z,73.20
2022-10-11T00:25:14.897Z,72.90
2022-10-11T00:30:18.880Z,72.60
2022-10-11T00:35:22.564Z,72.70
2022-10-11T00:40:27.503Z,72.50
2022-10-11T00:46:30.038Z,72.30
2022-10-11T00:51:45.255Z,72.30
2022-10-11T00:56:57.796Z,72.20
2022-10-11T01:02:01.584Z,72.30
2022-10-11T01:07:05.588Z,72.20
2022-10-11T01:12:20.778Z,72.30
2022-10-11T01:17:37.184Z,72.10
2022-10-11T01:24:07.470Z,72.10
2022-10-11T01:29:29.227Z,72.00
2022-10-11T01:34:41.689Z,72.00
2022-10-11T01:39:53.429Z,72.10
2022-10-11T01:44:58.679Z,72.40
2022-10-11T01:50:04.838Z,72.30
2022-10-11T01:55:22.314Z,72.40
2022-10-11T02:00:30.392Z,72.50
2022-10-11T02:05:47.565Z,72.50
2022-10-11T02:11:02.540Z,72.60
2022-10-11T02:16:13.710Z,72.70
2022-10-11T02:21:23.197Z,73.30
2022-10-11T02:26:30.532Z,72.90
2022-10-11T02:31:36.337Z,72.50
2022-10-11T02:36:52.267Z,72.40
2022-10-11T02:42:00.755Z,72.50
2022-10-11T02:47:06.534Z,72.60
2022-10-11T02:52:11.582Z,72.60
2022-10-11T02:57:15.209Z,72.00
2022-10-11T03:02:18.864Z,71.20
2022-10-11T03:07:23.994Z,70.60
2022-10-11T03:12:27.558Z,70.40
2022-10-11T03:17:36.517Z,70.10
2022-10-11T03:22:41.978Z,70.10
2022-10-11T03:27:45.759Z,70.60
2022-10-11T03:32:49.519Z,69.60
2022-10-11T03:37:54.395Z,69.80
2022-10-11T03:42:58.085Z,70.10
2022-10-11T03:48:01.767Z,70.20
2022-10-11T03:53:08.568Z,70.50
2022-10-11T03:58:12.217Z,70.30
2022-10-11T04:03:15.789Z,70.40
2022-10-11T04:08:20.596Z,69.70
2022-10-11T04:13:24.167Z,70.90
2022-10-11T04:18:27.567Z,70.90
2022-10-11T04:23:34.497Z,71.10
2022-10-11T04:28:38.012Z,71.00
2022-10-11T04:33:41.600Z,70.80
2022-10-11T04:38:46.776Z,71.40
2022-10-11T04:43:50.326Z,70.50
2022-10-11T04:48:53.902Z,71.20
2022-10-11T04:53:58.969Z,71.10
2022-10-11T04:59:02.474Z,70.70
2022-10-11T05:04:06.458Z,70.70
2022-10-11T05:09:11.269Z,70.80
2022-10-11T05:14:14.822Z,70.70
2022-10-11T05:19:18.354Z,71.40
2022-10-11T05:24:23.515Z,70.90
2022-10-11T05:29:27.655Z,70.10
2022-10-11T05:34:31.339Z,69.70
2022-10-11T05:39:36.217Z,69.50
2022-10-11T05:44:39.941Z,69.10
2022-10-11T05:49:43.421Z,69.20
2022-10-11T05:54:48.890Z,69.10
2022-10-11T05:59:52.570Z,69.20
2022-10-11T06:04:56.175Z,69.30
2022-10-11T06:10:01.792Z,69.30
2022-10-11T06:15:06.572Z,69.30
2022-10-11T06:20:11.437Z,69.10
2022-10-11T06:25:16.491Z,69.20
2022-10-11T06:30:20.208Z,69.00
2022-10-11T06:35:24.043Z,69.00
2022-10-11T06:40:29.338Z,69.10
2022-10-11T06:45:33.112Z,69.00
2022-10-11T06:50:58.456Z,69.00
2022-10-11T06:56:10.280Z,68.90
2022-10-11T07:01:19.532Z,69.00
2022-10-11T07:06:26.616Z,69.10
2022-10-11T07:11:32.586Z,69.10
2022-10-11T07:16:37.398Z,69.00
2022-10-11T07:21:40.927Z,69.00
2022-10-11T07:26:45.944Z,69.10
2022-10-11T07:31:49.458Z,69.00
2022-10-11T07:36:53.267Z,69.10
2022-10-11T07:41:58.147Z,69.70
2022-10-11T07:47:01.777Z,68.10
2022-10-11T07:52:05.475Z,66.80
2022-10-11T07:57:10.437Z,66.70
2022-10-11T08:02:15.228Z,66.40
2022-10-11T08:07:18.953Z,65.90
2022-10-11T08:12:23.803Z,66.10
2022-10-11T08:17:27.510Z,65.50
2022-10-11T08:22:31.297Z,65.00
2022-10-11T08:27:36.487Z,64.40
2022-10-11T08:32:39.999Z,63.90
2022-10-11T08:37:43.450Z,63.60
2022-10-11T08:42:57.972Z,63.50
2022-10-11T08:48:14.686Z,63.50
2022-10-11T08:53:29.877Z,63.40
2022-10-11T08:58:42.906Z,63.40
2022-10-11T09:03:48.886Z,65.60
2022-10-11T09:09:20.251Z,65.40
2022-10-11T09:14:58.736Z,65.10
2022-10-11T09:20:39.660Z,64.80
2022-10-11T09:25:52.991Z,64.80
2022-10-11T09:31:00.845Z,64.70
2022-10-11T09:36:20.291Z,64.70
2022-10-11T09:41:31.099Z,64.60
2022-10-11T09:46:39.539Z,64.60
2022-10-11T09:51:51.147Z,64.40
2022-10-11T09:56:55.376Z,64.20
2022-10-11T10:02:24.380Z,64.10
2022-10-11T10:07:31.418Z,64.20
2022-10-11T10:12:35.005Z,64.00
2022-10-11T10:17:40.079Z,64.10
2022-10-11T10:22:48.191Z,64.20
2022-10-11T10:28:00.043Z,64.00
2022-10-11T10:33:11.008Z,63.90
2022-10-11T10:38:26.552Z,63.60
2022-10-11T10:43:35.981Z,63.60
2022-10-11T10:54:29.066Z,63.70
2022-10-11T10:59:57.272Z,63.70
2022-10-11T11:05:18.959Z,64.10
2022-10-11T11:10:26.560Z,64.50
2022-10-11T11:15:38.154Z,64.70
2022-10-11T11:21:14.328Z,65.00
2022-10-11T11:26:28.964Z,65.30
2022-10-11T11:32:08.985Z,65.50
2022-10-11T11:37:28.030Z,65.80
2022-10-11T11:42:41.017Z,65.80
2022-10-11T11:47:54.163Z,66.00
2022-10-11T11:53:05.465Z,66.10
2022-10-11T11:58:31.828Z,66.30
2022-10-11T12:03:42.468Z,66.30
2022-10-11T12:08:56.636Z,66.80
2022-10-11T12:14:03.879Z,66.50
2022-10-11T12:19:08.342Z,66.60
2022-10-11T12:24:25.043Z,66.70
2022-10-11T12:29:49.619Z,66.70
2022-10-11T12:34:53.266Z,66.80
2022-10-11T12:40:00.602Z,66.90
2022-10-11T12:45:32.605Z,66.90
2022-10-11T12:50:52.643Z,67.10
2022-10-11T12:56:07.926Z,67.00
2022-10-11T13:01:22.728Z,67.20
2022-10-11T13:06:31.167Z,67.20
2022-10-11T13:11:44.562Z,67.20
2022-10-11T13:17:00.203Z,67.30
2022-10-11T13:22:15.182Z,67.40
2022-10-11T13:27:24.497Z,67.40
2022-10-11T13:32:31.933Z,67.70
2022-10-11T13:37:47.025Z,68.00
2022-10-11T13:42:54.216Z,68.00
2022-10-11T13:47:58.065Z,68.00
2022-10-11T13:53:04.904Z,67.90
2022-10-11T13:58:19.038Z,67.90
2022-10-11T14:03:24.737Z,67.90
2022-10-11T14:08:35.496Z,67.90
2022-10-11T14:13:42.770Z,67.90
2022-10-11T14:18:50.155Z,67.90
2022-10-11T14:23:55.850Z,67.80
2022-10-11T14:29:04.082Z,67.80
2022-10-11T14:34:08.848Z,68.00
2022-10-11T14:39:18.799Z,67.90
2022-10-11T14:44:24.394Z,68.00
2022-10-11T14:49:31.398Z,68.10
2022-10-11T14:54:35.724Z,68.00
2022-10-11T14:59:40.907Z,68.00
2022-10-11T15:04:44.605Z,68.00
2022-10-11T15:09:48.039Z,68.00
2022-10-11T15:14:53.366Z,68.90
2022-10-11T15:19:56.795Z,68.60
2022-10-11T15:25:00.329Z,68.50
2022-10-11T15:30:15.081Z,69.00
2022-10-11T15:35:20.662Z,69.40
2022-10-11T15:40:31.674Z,68.90
2022-10-11T15:45:37.532Z,69.30
2022-10-11T15:50:41.606Z,69.00
2022-10-11T15:55:49.515Z,69.30
2022-10-11T16:00:57.085Z,68.10
2022-10-11T16:06:05.187Z,67.90
2022-10-11T16:11:11.033Z,68.30
2022-10-11T16:16:15.873Z,67.20
2022-10-11T16:21:20.862Z,66.50
2022-10-11T16:26:24.485Z,66.50
2022-10-11T16:31:29.455Z,68.90
2022-10-11T16:36:35.630Z,68.20
2022-10-11T16:41:39.383Z,68.10
2022-10-11T16:46:47.799Z,69.10
2022-10-11T16:51:53.319Z,68.40
2022-10-11T16:56:57.181Z,68.90
2022-10-11T17:02:02.429Z,69.50
2022-10-11T17:07:12.244Z,69.40
2022-10-11T17:12:18.559Z,69.30
2022-10-11T17:17:23.786Z,69.50
2022-10-11T17:22:27.448Z,69.30
2022-10-11T17:27:31.290Z,69.40
2022-10-11T17:32:36.353Z,70.20
2022-10-11T17:37:39.892Z,69.40
2022-10-11T17:42:43.406Z,69.50
2022-10-11T17:47:48.360Z,69.50
2022-10-11T17:52:51.903Z,69.60
2022-10-11T17:57:55.380Z,69.50
2022-10-11T18:03:00.350Z,69.50
2022-10-11T18:08:03.969Z,69.60
2022-10-11T18:13:10.038Z,70.00
2022-10-11T18:18:18.281Z,69.50
2022-10-11T18:23:22.229Z,67.80
2022-10-11T18:28:26.011Z,66.40
2022-10-11T18:33:31.064Z,65.20
2022-10-11T18:38:35.889Z,64.70
2022-10-11T18:43:39.858Z,64.60
2022-10-11T18:48:47.857Z,64.70
2022-10-11T18:53:52.393Z,64.80
2022-10-11T18:58:58.422Z,64.90
2022-10-11T19:04:05.485Z,65.10
2022-10-11T19:09:13.051Z,65.30
2022-10-11T19:14:19.195Z,65.50
2022-10-11T19:19:28.645Z,65.70
2022-10-11T19:24:33.634Z,65.90
2022-10-11T19:29:37.887Z,66.10
2022-10-11T19:34:42.881Z,66.30
2022-10-11T19:39:46.548Z,66.50
2022-10-11T19:44:50.096Z,66.90
2022-10-11T19:49:54.996Z,67.00
2022-10-11T19:54:58.568Z,67.30
2022-10-11T20:00:02.184Z,67.30
2022-10-11T20:05:10.348Z,67.60
2022-10-11T20:10:13.907Z,67.80
2022-10-11T20:15:17.845Z,68.10
2022-10-11T20:20:22.798Z,68.20
2022-10-11T20:25:26.497Z,68.00
2022-10-11T20:30:31.696Z,68.30
2022-10-11T20:35:36.752Z,68.50
2022-10-11T20:40:41.991Z,68.30
2022-10-11T20:45:47.289Z,68.40
2022-10-11T20:50:52.097Z,68.30
2022-10-11T20:55:56.599Z,68.30
2022-10-11T21:01:00.303Z,68.40
2022-10-11T21:06:05.600Z,68.60
2022-10-11T21:11:10.385Z,68.50
2022-10-11T21:16:18.119Z,68.60
2022-10-11T21:21:24.429Z,68.60
2022-10-11T21:26:29.154Z,68.50
2022-10-11T21:31:34.496Z,68.20
2022-10-11T21:36:39.617Z,68.30
2022-10-11T21:41:43.397Z,68.40
2022-10-11T21:47:06.980Z,68.30
2022-10-11T21:52:12.330Z,68.50
2022-10-11T21:57:15.934Z,68.60
2022-10-11T22:02:19.604Z,68.70
2022-10-11T22:07:24.601Z,68.70
2022-10-11T22:37:17.805Z,69.30
2022-10-11T22:42:26.810Z,69.30
2022-10-11T22:47:31.455Z,69.50
2022-10-11T22:52:36.355Z,69.40
2022-10-11T22:57:39.798Z,69.50
2022-10-11T23:02:43.281Z,69.60
2022-10-11T23:07:49.897Z,69.80
2022-10-11T23:12:53.406Z,69.90
2022-10-11T23:17:57.115Z,70.10
2022-10-11T23:23:02.053Z,69.60
2022-10-11T23:28:06.383Z,68.70
2022-10-11T23:33:10.302Z,68.10
2022-10-11T23:38:15.092Z,67.80
2022-10-11T23:43:18.656Z,67.60
2022-10-11T23:48:22.331Z,67.70
2022-10-11T23:53:27.559Z,67.60
2022-10-11T23:58:31.250Z,67.50
